createdAt,value
2022-12-31T00:01:13.089Z,9.00
2022-12-31T00:03:40.133Z,9.10
2022-12-31T00:06:17.791Z,9.10
2022-12-31T00:08:45.001Z,9.10
2022-12-31T00:11:12.280Z,9.10
2022-12-31T00:13:39.204Z,9.10
2022-12-31T00:16:17.594Z,9.10
2022-12-31T00:18:48.119Z,9.00
2022-12-31T00:21:15.188Z,9.00
2022-12-31T00:23:42.216Z,9.00
2022-12-31T00:26:10.272Z,9.00
2022-12-31T00:28:37.398Z,9.00
2022-12-31T00:31:24.574Z,9.00
2022-12-31T00:33:51.543Z,9.00
2022-12-31T00:36:18.533Z,9.00
2022-12-31T00:38:46.826Z,8.90
2022-12-31T00:41:13.887Z,9.00
2022-12-31T00:43:40.776Z,9.00
2022-12-31T00:46:07.820Z,9.00
2022-12-31T00:48:34.833Z,9.00
2022-12-31T00:51:01.971Z,9.00
2022-12-31T00:53:29.006Z,8.90
2022-12-31T00:56:10.349Z,9.00
2022-12-31T00:58:37.324Z,8.90
2022-12-31T01:01:15.681Z,9.00
2022-12-31T01:03:42.702Z,9.10
2022-12-31T01:06:09.643Z,9.10
2022-12-31T01:08:36.878Z,9.10
2022-12-31T01:11:19.233Z,9.00
2022-12-31T01:13:46.865Z,9.10
2022-12-31T01:16:14.376Z,9.00
2022-12-31T01:18:41.388Z,9.10
2022-12-31T01:21:09.158Z,9.10
2022-12-31T01:23:36.188Z,9.00
2022-12-31T01:26:03.779Z,9.10
2022-12-31T01:28:30.995Z,9.10
2022-12-31T01:30:58.073Z,9.20
2022-12-31T01:33:25.048Z,9.20
2022-12-31T01:35:52.195Z,9.30
2022-12-31T01:38:19.099Z,9.30
2022-12-31T01:40:46.037Z,9.30
2022-12-31T01:43:16.875Z,9.40
2022-12-31T01:45:44.586Z,9.40
2022-12-31T01:48:12.305Z,9.50
2022-12-31T01:50:40.070Z,9.50
2022-12-31T01:53:07.105Z,9.50
2022-12-31T01:55:35.806Z,9.60
2022-12-31T01:58:07.149Z,9.60
2022-12-31T02:00:34.298Z,9.60
2022-12-31T02:03:01.393Z,9.60
2022-12-31T02:05:47.181Z,9.60
2022-12-31T02:08:14.107Z,9.70
2022-12-31T02:10:41.028Z,9.80
2022-12-31T02:13:07.969Z,9.70
2022-12-31T02:15:43.793Z,9.80
2022-12-31T02:18:19.933Z,9.80
2022-12-31T02:20:46.894Z,9.90
2022-12-31T02:23:32.717Z,9.90
2022-12-31T02:26:11.539Z,10.00
2022-12-31T02:28:38.475Z,10.10
2022-12-31T02:31:23.949Z,10.10
2022-12-31T02:33:57.803Z,10.20
2022-12-31T02:36:25.644Z,10.20
2022-12-31T02:38:52.592Z,10.30
2022-12-31T02:41:38.222Z,10.30
2022-12-31T02:44:26.859Z,10.30
2022-12-31T02:47:00.024Z,10.40
2022-12-31T02:49:30.981Z,10.40
2022-12-31T02:52:01.874Z,10.50
2022-12-31T02:54:31.917Z,10.50
2022-12-31T02:56:58.860Z,10.50
2022-12-31T02:59:47.454Z,10.50
2022-12-31T03:02:16.011Z,10.60
2022-12-31T03:04:44.283Z,10.70
2022-12-31T03:07:14.797Z,10.70
2022-12-31T03:09:41.831Z,10.70
2022-12-31T03:12:27.765Z,10.80
2022-12-31T03:14:54.783Z,10.70
2022-12-31T03:17:21.736Z,10.70
2022-12-31T03:20:07.122Z,10.70
2022-12-31T03:22:36.445Z,10.70
2022-12-31T03:25:26.416Z,10.70
2022-12-31T03:27:53.448Z,10.70
2022-12-31T03:30:20.700Z,10.60
2022-12-31T03:32:47.851Z,10.70
2022-12-31T03:35:15.124Z,10.60
2022-12-31T03:37:42.154Z,10.60
2022-12-31T03:40:10.353Z,10.60
2022-12-31T03:42:37.700Z,10.60
2022-12-31T03:45:04.944Z,10.70
2022-12-31T03:47:31.985Z,10.60
2022-12-31T03:49:59.019Z,10.70
2022-12-31T03:52:25.974Z,10.70
2022-12-31T03:54:52.869Z,10.70
2022-12-31T03:57:19.846Z,10.70
2022-12-31T03:59:46.845Z,10.70
2022-12-31T04:02:13.956Z,10.80
2022-12-31T04:04:41.066Z,10.70
2022-12-31T04:07:08.065Z,10.80
2022-12-31T04:09:35.008Z,10.80
2022-12-31T04:12:02.110Z,10.80
2022-12-31T04:14:28.993Z,10.80
2022-12-31T04:16:55.943Z,10.80
2022-12-31T04:19:22.920Z,10.90
2022-12-31T04:21:49.884Z,10.90
2022-12-31T04:24:16.770Z,10.90
2022-12-31T04:26:44.701Z,10.90
2022-12-31T04:29:11.621Z,11.00
2022-12-31T04:31:38.599Z,11.00
2022-12-31T04:34:05.498Z,10.90
2022-12-31T04:36:32.490Z,11.00
2022-12-31T04:38:59.383Z,11.00
2022-12-31T04:41:27.247Z,11.00
2022-12-31T04:43:54.942Z,11.00
2022-12-31T04:46:23.140Z,11.00
2022-12-31T04:48:50.091Z,11.00
2022-12-31T04:51:17.117Z,11.10
2022-12-31T04:53:44.050Z,11.10
2022-12-31T04:56:11.100Z,11.10
2022-12-31T04:58:38.219Z,11.20
2022-12-31T05:01:05.259Z,11.20
2022-12-31T05:03:32.310Z,11.20
2022-12-31T05:06:02.818Z,11.30
2022-12-31T05:08:29.836Z,11.20
2022-12-31T05:10:56.831Z,11.20
2022-12-31T05:13:28.028Z,11.20
2022-12-31T05:15:58.055Z,11.20
2022-12-31T05:18:25.046Z,11.20
2022-12-31T05:20:52.011Z,11.30
2022-12-31T05:23:19.112Z,11.30
2022-12-31T05:25:46.395Z,11.30
2022-12-31T05:28:13.403Z,11.30
2022-12-31T05:30:40.383Z,11.40
2022-12-31T05:33:07.351Z,11.30
2022-12-31T05:35:34.485Z,11.40
2022-12-31T05:38:01.591Z,11.40
2022-12-31T05:40:28.582Z,11.50
2022-12-31T05:42:55.548Z,11.50
2022-12-31T05:45:28.341Z,11.60
2022-12-31T05:47:57.548Z,11.70
2022-12-31T05:50:24.560Z,11.70
2022-12-31T05:52:56.025Z,11.70
2022-12-31T05:55:23.167Z,11.70
2022-12-31T05:57:50.103Z,11.80
2022-12-31T06:00:17.152Z,11.80
2022-12-31T06:02:45.221Z,11.80
2022-12-31T06:05:12.372Z,11.80
2022-12-31T06:07:39.319Z,11.80
2022-12-31T06:10:06.661Z,11.90
2022-12-31T06:12:33.692Z,11.90
2022-12-31T06:15:00.682Z,11.90
2022-12-31T06:17:32.451Z,12.00
2022-12-31T06:19:59.991Z,11.90
2022-12-31T06:22:26.933Z,11.90
2022-12-31T06:24:54.085Z,12.00
2022-12-31T06:27:20.961Z,12.00
2022-12-31T06:29:48.220Z,12.00
2022-12-31T06:32:15.859Z,12.00
2022-12-31T06:34:42.855Z,12.00
2022-12-31T06:37:11.371Z,12.10
2022-12-31T06:39:38.353Z,12.00
2022-12-31T06:42:05.672Z,12.00
2022-12-31T06:44:32.617Z,12.00
2022-12-31T06:46:59.678Z,12.00
2022-12-31T06:49:26.605Z,11.90
2022-12-31T06:51:53.576Z,11.90
2022-12-31T06:54:20.604Z,11.90
2022-12-31T06:56:47.662Z,12.00
2022-12-31T06:59:34.826Z,12.00
2022-12-31T07:02:08.314Z,12.10
2022-12-31T07:04:38.082Z,12.10
2022-12-31T07:07:17.332Z,12.10
2022-12-31T07:09:48.303Z,12.20
2022-12-31T07:12:15.204Z,12.20
2022-12-31T07:15:00.783Z,12.20
2022-12-31T07:17:46.489Z,12.20
2022-12-31T07:20:14.539Z,12.20
2022-12-31T07:22:41.587Z,12.20
2022-12-31T07:25:16.224Z,12.30
2022-12-31T07:27:52.701Z,12.30
2022-12-31T07:30:19.689Z,12.40
2022-12-31T07:32:55.411Z,12.50
2022-12-31T07:35:34.586Z,12.60
2022-12-31T07:38:02.072Z,12.60
2022-12-31T07:40:44.382Z,12.70
2022-12-31T07:43:20.603Z,12.70
2022-12-31T07:45:50.629Z,12.80
2022-12-31T07:48:27.339Z,12.90
2022-12-31T07:50:54.872Z,13.00
2022-12-31T07:53:22.394Z,13.00
2022-12-31T07:55:56.496Z,13.10
2022-12-31T07:58:42.256Z,13.10
2022-12-31T08:01:13.425Z,13.20
2022-12-31T08:03:43.114Z,13.20
2022-12-31T08:06:25.263Z,13.20
2022-12-31T08:09:12.330Z,13.20
2022-12-31T08:11:59.653Z,13.30
2022-12-31T08:14:26.905Z,13.30
2022-12-31T08:16:53.982Z,13.30
2022-12-31T08:19:24.652Z,13.40
2022-12-31T08:22:11.857Z,13.40
2022-12-31T08:24:51.814Z,13.40
2022-12-31T08:27:24.389Z,13.40
2022-12-31T08:30:03.381Z,13.40
2022-12-31T08:32:36.148Z,13.40
2022-12-31T08:35:06.092Z,13.50
2022-12-31T08:37:33.215Z,13.50
2022-12-31T08:40:00.084Z,13.50
2022-12-31T08:42:30.286Z,13.60
2022-12-31T08:45:05.034Z,13.70
2022-12-31T08:47:38.707Z,13.70
2022-12-31T08:50:06.221Z,13.80
2022-12-31T08:52:33.420Z,13.80
2022-12-31T08:55:00.538Z,13.90
2022-12-31T08:57:30.406Z,14.00
2022-12-31T09:00:06.974Z,14.10
2022-12-31T09:02:33.950Z,14.10
2022-12-31T09:05:00.928Z,14.20
2022-12-31T09:07:31.497Z,14.40
2022-12-31T09:10:36.887Z,14.50
2022-12-31T09:13:09.831Z,14.60
2022-12-31T09:15:44.265Z,14.80
2022-12-31T09:18:12.009Z,15.00
2022-12-31T09:20:43.893Z,15.10
2022-12-31T09:23:12.427Z,15.20
2022-12-31T09:25:42.416Z,15.40
2022-12-31T09:28:12.334Z,15.50
2022-12-31T09:30:48.137Z,15.60
2022-12-31T09:33:35.291Z,15.70
2022-12-31T09:36:03.993Z,15.80
2022-12-31T09:38:31.710Z,15.80
2022-12-31T09:41:10.933Z,15.90
2022-12-31T09:44:00.861Z,16.00
2022-12-31T09:46:31.136Z,16.00
2022-12-31T09:49:01.183Z,16.10
2022-12-31T09:51:31.536Z,16.20
2022-12-31T09:54:23.137Z,16.30
2022-12-31T09:56:54.092Z,16.30
2022-12-31T09:59:30.225Z,16.50
2022-12-31T10:01:57.790Z,16.50
2022-12-31T10:04:27.615Z,16.60
2022-12-31T10:06:57.628Z,16.60
2022-12-31T10:09:40.018Z,16.70
2022-12-31T10:12:25.820Z,16.80
2022-12-31T10:15:11.086Z,16.90
2022-12-31T10:17:41.115Z,17.20
2022-12-31T10:20:17.160Z,17.40
2022-12-31T10:22:44.201Z,17.40
2022-12-31T10:25:38.669Z,17.50
2022-12-31T10:28:15.169Z,17.50
2022-12-31T10:30:44.223Z,17.60
2022-12-31T10:33:18.299Z,17.60
2022-12-31T10:35:53.915Z,17.60
2022-12-31T10:38:27.184Z,17.70
2022-12-31T10:40:56.913Z,17.70
2022-12-31T10:43:26.850Z,17.80
2022-12-31T10:46:02.908Z,17.80
2022-12-31T10:48:29.936Z,17.90
2022-12-31T10:51:04.188Z,18.00
2022-12-31T10:53:51.694Z,17.90
2022-12-31T10:56:39.422Z,17.90
2022-12-31T10:59:24.295Z,18.00
2022-12-31T11:02:10.211Z,18.20
2022-12-31T11:04:55.405Z,18.30
2022-12-31T11:07:35.621Z,18.50
2022-12-31T11:10:02.549Z,18.80
2022-12-31T11:12:48.353Z,19.30
2022-12-31T11:15:21.238Z,20.00
2022-12-31T11:17:51.962Z,20.50
2022-12-31T11:20:27.467Z,20.80
2022-12-31T11:22:57.194Z,21.40
2022-12-31T11:25:24.158Z,21.90
2022-12-31T11:27:51.168Z,22.30
2022-12-31T11:30:36.478Z,22.60
2022-12-31T11:33:12.557Z,23.00
2022-12-31T11:35:58.251Z,23.20
2022-12-31T11:38:54.387Z,22.80
2022-12-31T11:41:24.174Z,22.70
2022-12-31T11:43:51.116Z,22.80
2022-12-31T11:46:27.212Z,23.30
2022-12-31T11:49:13.275Z,23.90
2022-12-31T11:51:48.547Z,24.00
2022-12-31T11:54:35.808Z,23.50
2022-12-31T11:57:23.357Z,23.30
2022-12-31T11:59:54.830Z,22.50
2022-12-31T12:02:26.225Z,22.00
2022-12-31T12:04:53.724Z,22.00
2022-12-31T12:07:20.603Z,22.30
2022-12-31T12:09:47.509Z,22.30
2022-12-31T12:12:15.690Z,22.20
2022-12-31T12:14:43.741Z,21.70
2022-12-31T12:17:12.970Z,21.20
2022-12-31T12:19:43.841Z,20.90
2022-12-31T12:22:11.400Z,20.80
2022-12-31T12:24:38.306Z,20.40
2022-12-31T12:27:05.322Z,20.10
2022-12-31T12:29:34.241Z,19.80
2022-12-31T12:32:02.011Z,19.70
2022-12-31T12:34:30.000Z,19.50
2022-12-31T12:36:56.954Z,19.30
2022-12-31T12:39:27.553Z,19.10
2022-12-31T12:42:01.661Z,19.00
2022-12-31T12:44:28.709Z,18.80
2022-12-31T12:46:55.772Z,18.80
2022-12-31T12:49:23.851Z,18.70
2022-12-31T12:52:02.648Z,18.60
2022-12-31T12:54:48.021Z,18.60
2022-12-31T12:57:33.395Z,18.50
2022-12-31T13:00:07.763Z,18.40
2022-12-31T13:02:48.822Z,18.40
2022-12-31T13:05:15.786Z,18.30
2022-12-31T13:08:00.903Z,18.20
2022-12-31T13:10:36.886Z,18.20
2022-12-31T13:15:56.238Z,18.10
2022-12-31T13:18:28.952Z,18.00
2022-12-31T13:21:03.887Z,18.10
2022-12-31T13:23:33.661Z,18.00
2022-12-31T13:26:13.960Z,18.10
2022-12-31T13:28:42.849Z,18.10
2022-12-31T13:31:11.282Z,17.90
2022-12-31T13:33:42.309Z,17.80
2022-12-31T13:36:09.947Z,17.80
2022-12-31T13:38:37.826Z,17.70
2022-12-31T13:41:18.696Z,17.70
2022-12-31T13:44:01.053Z,17.60
2022-12-31T13:46:40.112Z,17.70
2022-12-31T13:49:14.379Z,17.60
2022-12-31T13:51:48.264Z,17.60
2022-12-31T13:54:33.874Z,17.60
2022-12-31T13:57:02.212Z,17.60
2022-12-31T13:59:29.958Z,17.60
2022-12-31T14:02:16.246Z,17.60
2022-12-31T14:04:46.775Z,17.70
2022-12-31T14:07:16.057Z,17.60
2022-12-31T14:09:43.047Z,17.60
2022-12-31T14:12:22.993Z,17.50
2022-12-31T14:15:08.674Z,17.50
2022-12-31T14:17:43.912Z,17.40
2022-12-31T14:20:16.791Z,17.30
2022-12-31T14:23:02.973Z,17.30
2022-12-31T14:25:40.585Z,17.20
2022-12-31T14:28:07.696Z,17.20
2022-12-31T14:30:35.536Z,17.20
2022-12-31T14:33:22.769Z,17.10
2022-12-31T14:35:56.741Z,17.10
2022-12-31T14:38:46.826Z,17.10
2022-12-31T14:41:29.337Z,17.00
2022-12-31T14:43:59.148Z,17.00
2022-12-31T14:46:38.496Z,16.90
2022-12-31T14:49:20.493Z,16.90
2022-12-31T14:51:48.361Z,16.80
2022-12-31T14:54:29.088Z,16.90
2022-12-31T14:56:56.187Z,16.80
2022-12-31T14:59:26.937Z,16.70
2022-12-31T15:01:54.177Z,16.70
2022-12-31T15:04:34.080Z,16.70
2022-12-31T15:07:08.317Z,16.60
2022-12-31T15:09:53.858Z,16.60
2022-12-31T15:12:21.648Z,16.60
2022-12-31T15:14:48.627Z,16.60
2022-12-31T15:17:15.578Z,16.60
2022-12-31T15:19:42.567Z,16.50
2022-12-31T15:22:13.903Z,16.50
2022-12-31T15:24:43.809Z,16.50
2022-12-31T15:27:21.303Z,16.60
2022-12-31T15:29:49.071Z,16.50
2022-12-31T15:32:17.908Z,16.50
2022-12-31T15:34:44.866Z,16.40
2022-12-31T15:37:47.457Z,16.40
2022-12-31T15:40:19.027Z,16.40
2022-12-31T15:42:50.375Z,16.40
2022-12-31T15:45:34.295Z,16.30
2022-12-31T15:48:02.028Z,16.30
2022-12-31T15:50:29.000Z,16.30
2022-12-31T15:52:56.647Z,16.20
2022-12-31T15:55:26.505Z,16.20
2022-12-31T15:57:54.322Z,16.20
2022-12-31T16:00:21.922Z,16.20
2022-12-31T16:02:50.808Z,16.10
2022-12-31T16:05:27.165Z,16.10
2022-12-31T16:07:54.724Z,16.10
2022-12-31T16:10:23.250Z,16.00
2022-12-31T16:12:50.167Z,16.00
2022-12-31T16:15:21.104Z,16.00
2022-12-31T16:17:57.054Z,16.00
2022-12-31T16:20:25.128Z,16.10
2022-12-31T16:22:53.100Z,16.00
2022-12-31T16:25:30.652Z,16.00
2022-12-31T16:27:58.395Z,16.00
2022-12-31T16:30:26.576Z,16.00
2022-12-31T16:32:53.876Z,16.00
2022-12-31T16:35:23.818Z,16.10
2022-12-31T16:38:01.179Z,16.10
2022-12-31T16:40:28.361Z,16.10
2022-12-31T16:42:55.310Z,16.10
2022-12-31T16:45:42.495Z,16.10
2022-12-31T16:48:16.506Z,16.10
2022-12-31T16:50:50.823Z,16.10
2022-12-31T16:53:18.695Z,16.10
2022-12-31T16:55:55.276Z,16.10
2022-12-31T16:58:25.075Z,16.20
2022-12-31T17:00:52.128Z,16.30
2022-12-31T17:03:20.129Z,16.30
2022-12-31T17:06:13.767Z,16.20
2022-12-31T17:08:40.995Z,16.30
2022-12-31T17:11:23.531Z,16.30
2022-12-31T17:13:54.682Z,16.30
2022-12-31T17:16:21.713Z,16.30
2022-12-31T17:18:48.682Z,16.30
2022-12-31T17:21:15.654Z,16.30
2022-12-31T17:23:42.612Z,16.30
2022-12-31T17:26:11.634Z,16.20
2022-12-31T17:28:48.007Z,16.20
2022-12-31T17:31:31.396Z,16.20
2022-12-31T17:34:13.780Z,16.30
2022-12-31T17:37:07.004Z,16.30
2022-12-31T17:39:46.251Z,16.30
2022-12-31T17:42:13.917Z,16.30
2022-12-31T17:44:41.424Z,16.30
2022-12-31T17:47:08.731Z,16.30
2022-12-31T17:49:35.671Z,16.30
2022-12-31T17:52:02.619Z,16.30
2022-12-31T17:54:29.575Z,16.30
2022-12-31T17:56:56.506Z,16.30
2022-12-31T17:59:24.584Z,16.20
2022-12-31T18:01:51.702Z,16.20
2022-12-31T18:04:19.102Z,16.30
2022-12-31T18:06:46.131Z,16.40
2022-12-31T18:09:13.188Z,16.40
2022-12-31T18:11:40.192Z,16.40
2022-12-31T18:14:07.353Z,16.40
2022-12-31T18:16:34.442Z,16.40
2022-12-31T18:19:01.544Z,16.40
2022-12-31T18:21:32.739Z,16.40
2022-12-31T18:26:25.970Z,16.40
2022-12-31T18:28:52.963Z,16.40
2022-12-31T18:31:23.686Z,16.40
2022-12-31T18:33:51.094Z,16.40
2022-12-31T18:36:18.513Z,16.40
2022-12-31T18:38:45.447Z,16.40
2022-12-31T18:41:15.664Z,16.40
2022-12-31T18:43:42.667Z,16.50
2022-12-31T18:46:11.996Z,16.50
2022-12-31T18:48:41.505Z,16.50
2022-12-31T18:51:15.193Z,16.50
2022-12-31T18:53:42.338Z,16.50
2022-12-31T18:56:10.747Z,16.50
2022-12-31T18:58:37.656Z,16.50
2022-12-31T19:01:04.689Z,16.50
2022-12-31T19:03:31.830Z,16.50
2022-12-31T19:05:58.844Z,16.50
2022-12-31T19:08:25.780Z,16.50
2022-12-31T19:10:53.544Z,16.40
2022-12-31T19:13:20.503Z,16.40
2022-12-31T19:15:48.263Z,16.40
2022-12-31T19:18:15.265Z,16.30
2022-12-31T19:20:42.271Z,16.30
2022-12-31T19:23:18.939Z,16.30
2022-12-31T19:25:46.663Z,16.20
2022-12-31T19:28:16.766Z,16.20
2022-12-31T19:30:43.859Z,16.20
2022-12-31T19:33:10.939Z,16.20
2022-12-31T19:35:38.599Z,16.20
2022-12-31T19:38:25.792Z,16.20
2022-12-31T19:40:52.990Z,16.20
2022-12-31T19:43:20.814Z,16.20
2022-12-31T19:45:47.976Z,16.20
2022-12-31T19:48:17.722Z,16.20
2022-12-31T19:50:45.614Z,16.20
2022-12-31T19:53:16.503Z,16.20
2022-12-31T19:55:43.544Z,16.20
2022-12-31T19:58:14.673Z,16.20
2022-12-31T20:00:41.632Z,16.20
2022-12-31T20:03:09.286Z,16.20
2022-12-31T20:05:36.436Z,16.30
2022-12-31T20:08:03.312Z,16.20
2022-12-31T20:10:30.462Z,16.30
2022-12-31T20:12:57.362Z,16.30
2022-12-31T20:15:24.264Z,16.20
2022-12-31T20:17:51.157Z,16.30
2022-12-31T20:20:18.212Z,16.20
2022-12-31T20:22:45.172Z,16.20
2022-12-31T20:25:12.147Z,16.20
2022-12-31T20:27:39.104Z,16.20
2022-12-31T20:30:06.602Z,16.20
2022-12-31T20:32:33.613Z,16.10
2022-12-31T20:35:00.661Z,16.10
2022-12-31T20:37:27.594Z,16.00
2022-12-31T20:39:54.545Z,16.00
2022-12-31T20:42:21.444Z,16.00
2022-12-31T20:44:48.370Z,16.00
2022-12-31T20:47:15.326Z,16.10
2022-12-31T20:50:10.430Z,16.00
2022-12-31T20:52:29.284Z,16.00
2022-12-31T20:54:56.249Z,16.00
2022-12-31T20:57:23.236Z,16.00
2022-12-31T20:59:50.228Z,16.00
2022-12-31T21:02:21.540Z,16.10
2022-12-31T21:04:49.023Z,16.10
2022-12-31T21:07:16.087Z,16.10
2022-12-31T21:09:43.065Z,16.10
2022-12-31T21:12:29.940Z,16.10
2022-12-31T21:14:57.115Z,16.10
2022-12-31T21:17:24.143Z,16.20
2022-12-31T21:19:51.192Z,16.20
2022-12-31T21:22:18.229Z,16.30
2022-12-31T21:24:45.182Z,16.30
2022-12-31T21:27:12.126Z,16.30
2022-12-31T21:29:55.639Z,16.30
2022-12-31T21:32:26.133Z,16.30
2022-12-31T21:35:23.067Z,16.30
2022-12-31T21:37:58.614Z,16.30
2022-12-31T21:40:27.069Z,16.30
2022-12-31T21:42:53.971Z,16.40
2022-12-31T21:45:20.950Z,16.40
2022-12-31T21:48:06.566Z,16.40
2022-12-31T21:50:33.693Z,16.40
2022-12-31T21:53:00.612Z,16.40
2022-12-31T21:55:46.240Z,16.40
2022-12-31T21:58:25.916Z,16.40
2022-12-31T22:01:12.509Z,16.40
2022-12-31T22:03:39.834Z,16.40
2022-12-31T22:06:12.243Z,16.40
2022-12-31T22:08:39.633Z,16.40
2022-12-31T22:11:06.787Z,16.40
2022-12-31T22:13:33.893Z,16.50
2022-12-31T22:16:05.413Z,16.50
2022-12-31T22:18:35.075Z,16.60
2022-12-31T22:21:02.826Z,16.60
2022-12-31T22:23:30.454Z,16.60
2022-12-31T22:25:57.426Z,16.50
2022-12-31T22:28:40.292Z,16.60
2022-12-31T22:31:28.959Z,16.60
2022-12-31T22:33:56.041Z,16.70
2022-12-31T22:36:23.179Z,16.70
2022-12-31T22:38:50.920Z,16.70
2022-12-31T22:41:18.713Z,16.70
2022-12-31T22:43:58.475Z,16.70
2022-12-31T22:46:29.520Z,16.70
2022-12-31T22:48:57.256Z,16.80
2022-12-31T22:51:24.291Z,16.70
2022-12-31T22:53:51.248Z,16.80
2022-12-31T22:56:18.298Z,16.70
2022-12-31T22:58:45.502Z,16.80
2022-12-31T23:01:16.401Z,16.80
2022-12-31T23:03:43.346Z,16.80
2022-12-31T23:06:10.275Z,16.80
2022-12-31T23:08:37.209Z,16.80
2022-12-31T23:11:06.019Z,16.80
2022-12-31T23:13:55.787Z,16.80
2022-12-31T23:16:41.647Z,16.80
2022-12-31T23:19:27.092Z,16.80
2022-12-31T23:22:12.359Z,16.80
2022-12-31T23:24:39.431Z,16.80
2022-12-31T23:27:06.620Z,16.80
2022-12-31T23:29:33.714Z,16.80
2022-12-31T23:32:00.616Z,16.70
2022-12-31T23:34:27.576Z,16.70
2022-12-31T23:36:54.667Z,16.80
2022-12-31T23:39:21.663Z,16.80
2022-12-31T23:41:48.599Z,16.80
2022-12-31T23:44:15.576Z,16.80
2022-12-31T23:46:44.398Z,16.80
2022-12-31T23:49:11.902Z,16.80
2022-12-31T23:51:40.246Z,16.80
2022-12-31T23:54:07.394Z,16.80
2022-12-31T23:56:34.405Z,16.80
2022-12-31T23:59:01.325Z,16.80
